sensor_id;sensor_type;location;lat;lon;timestamp;temperature;humidity
6486;DHT22;3276;48.490;9.222;2023-08-21T00:01:33;22.00;53.60
6486;DHT22;3276;48.490;9.222;2023-08-21T00:03:58;22.00;54.00
6486;DHT22;3276;48.490;9.222;2023-08-21T00:06:24;21.90;54.30
6486;DHT22;3276;48.490;9.222;2023-08-21T00:08:52;21.90;54.10
6486;DHT22;3276;48.490;9.222;2023-08-21T00:11:18;21.90;54.40
6486;DHT22;3276;48.490;9.222;2023-08-21T00:13:43;21.80;54.60
6486;DHT22;3276;48.490;9.222;2023-08-21T00:16:10;21.80;54.80
6486;DHT22;3276;48.490;9.222;2023-08-21T00:18:36;21.90;55.00
6486;DHT22;3276;48.490;9.222;2023-08-21T00:21:02;21.80;55.10
6486;DHT22;3276;48.490;9.222;2023-08-21T00:23:27;21.80;54.90
6486;DHT22;3276;48.490;9.222;2023-08-21T00:25:53;21.80;54.80
6486;DHT22;3276;48.490;9.222;2023-08-21T00:28:18;21.80;54.50
6486;DHT22;3276;48.490;9.222;2023-08-21T00:30:44;21.80;55.00
6486;DHT22;3276;48.490;9.222;2023-08-21T00:33:09;21.70;55.20
6486;DHT22;3276;48.490;9.222;2023-08-21T00:35:35;21.70;55.20
6486;DHT22;3276;48.490;9.222;2023-08-21T00:38:00;21.70;55.20
6486;DHT22;3276;48.490;9.222;2023-08-21T00:40:26;21.70;55.20
6486;DHT22;3276;48.490;9.222;2023-08-21T00:42:51;21.70;55.60
6486;DHT22;3276;48.490;9.222;2023-08-21T00:45:17;21.70;55.80
6486;DHT22;3276;48.490;9.222;2023-08-21T00:47:43;21.60;56.20
6486;DHT22;3276;48.490;9.222;2023-08-21T00:50:09;21.60;56.60
6486;DHT22;3276;48.490;9.222;2023-08-21T00:52:38;21.50;57.00
6486;DHT22;3276;48.490;9.222;2023-08-21T00:55:06;21.50;57.20
6486;DHT22;3276;48.490;9.222;2023-08-21T00:57:31;21.50;57.20
6486;DHT22;3276;48.490;9.222;2023-08-21T01:00:00;21.50;57.40
6486;DHT22;3276;48.490;9.222;2023-08-21T01:02:25;21.50;57.90
6486;DHT22;3276;48.490;9.222;2023-08-21T01:04:51;21.40;58.10
6486;DHT22;3276;48.490;9.222;2023-08-21T01:07:16;21.40;57.20
6486;DHT22;3276;48.490;9.222;2023-08-21T01:09:50;21.40;57.50
6486;DHT22;3276;48.490;9.222;2023-08-21T01:12:25;21.40;57.60
6486;DHT22;3276;48.490;9.222;2023-08-21T01:15:04;21.30;35.80
6486;DHT22;3276;48.490;9.222;2023-08-21T01:17:38;21.30;35.80
6486;DHT22;3276;48.490;9.222;2023-08-21T01:20:07;21.30;35.70
6486;DHT22;3276;48.490;9.222;2023-08-21T01:22:38;21.20;36.70
6486;DHT22;3276;48.490;9.222;2023-08-21T01:25:05;21.20;38.00
6486;DHT22;3276;48.490;9.222;2023-08-21T01:27:32;21.20;38.10
6486;DHT22;3276;48.490;9.222;2023-08-21T01:29:59;21.20;37.20
6486;DHT22;3276;48.490;9.222;2023-08-21T01:35:19;21.10;36.80
6486;DHT22;3276;48.490;9.222;2023-08-21T01:37:45;21.10;37.60
6486;DHT22;3276;48.490;9.222;2023-08-21T01:40:11;21.10;38.30
6486;DHT22;3276;48.490;9.222;2023-08-21T01:42:36;21.10;38.60
6486;DHT22;3276;48.490;9.222;2023-08-21T01:45:02;21.10;38.60
6486;DHT22;3276;48.490;9.222;2023-08-21T01:47:28;21.10;38.70
6486;DHT22;3276;48.490;9.222;2023-08-21T01:49:53;21.10;39.20
6486;DHT22;3276;48.490;9.222;2023-08-21T01:52:19;21.10;39.40
6486;DHT22;3276;48.490;9.222;2023-08-21T01:54:45;21.10;39.70
6486;DHT22;3276;48.490;9.222;2023-08-21T01:57:13;21.10;39.60
6486;DHT22;3276;48.490;9.222;2023-08-21T01:59:39;21.00;40.50
6486;DHT22;3276;48.490;9.222;2023-08-21T02:02:04;21.00;40.70
6486;DHT22;3276;48.490;9.222;2023-08-21T02:04:30;20.90;40.60
6486;DHT22;3276;48.490;9.222;2023-08-21T02:06:55;20.90;40.60
6486;DHT22;3276;48.490;9.222;2023-08-21T02:09:21;20.90;41.20
6486;DHT22;3276;48.490;9.222;2023-08-21T02:11:46;20.90;40.70
6486;DHT22;3276;48.490;9.222;2023-08-21T02:14:12;20.80;41.60
6486;DHT22;3276;48.490;9.222;2023-08-21T02:16:37;20.80;41.90
6486;DHT22;3276;48.490;9.222;2023-08-21T02:19:03;20.80;42.10
6486;DHT22;3276;48.490;9.222;2023-08-21T02:21:29;20.80;43.10
6486;DHT22;3276;48.490;9.222;2023-08-21T02:23:54;20.80;43.90
6486;DHT22;3276;48.490;9.222;2023-08-21T02:26:20;20.80;46.60
6486;DHT22;3276;48.490;9.222;2023-08-21T02:28:45;20.80;47.50
6486;DHT22;3276;48.490;9.222;2023-08-21T02:31:12;20.80;58.10
6486;DHT22;3276;48.490;9.222;2023-08-21T02:33:37;20.90;61.00
6486;DHT22;3276;48.490;9.222;2023-08-21T02:36:03;20.80;59.20
6486;DHT22;3276;48.490;9.222;2023-08-21T02:38:29;20.80;59.20
6486;DHT22;3276;48.490;9.222;2023-08-21T02:40:54;20.80;59.10
6486;DHT22;3276;48.490;9.222;2023-08-21T02:43:20;21.00;52.50
6486;DHT22;3276;48.490;9.222;2023-08-21T02:45:46;20.70;53.40
6486;DHT22;3276;48.490;9.222;2023-08-21T02:48:11;20.70;50.90
6486;DHT22;3276;48.490;9.222;2023-08-21T02:50:37;20.60;52.70
6486;DHT22;3276;48.490;9.222;2023-08-21T02:53:03;20.60;62.00
6486;DHT22;3276;48.490;9.222;2023-08-21T02:55:28;20.60;64.30
6486;DHT22;3276;48.490;9.222;2023-08-21T02:57:54;20.60;64.30
6486;DHT22;3276;48.490;9.222;2023-08-21T03:00:19;20.50;64.40
6486;DHT22;3276;48.490;9.222;2023-08-21T03:02:45;20.50;64.90
6486;DHT22;3276;48.490;9.222;2023-08-21T03:05:11;20.50;64.80
6486;DHT22;3276;48.490;9.222;2023-08-21T03:07:36;20.50;65.70
6486;DHT22;3276;48.490;9.222;2023-08-21T03:10:02;20.40;65.50
6486;DHT22;3276;48.490;9.222;2023-08-21T03:12:28;20.40;65.70
6486;DHT22;3276;48.490;9.222;2023-08-21T03:14:53;20.40;65.80
6486;DHT22;3276;48.490;9.222;2023-08-21T03:17:19;20.40;66.30
6486;DHT22;3276;48.490;9.222;2023-08-21T03:19:45;20.40;66.80
6486;DHT22;3276;48.490;9.222;2023-08-21T03:22:10;20.30;67.50
6486;DHT22;3276;48.490;9.222;2023-08-21T03:24:36;20.30;68.20
6486;DHT22;3276;48.490;9.222;2023-08-21T03:27:02;20.40;68.40
6486;DHT22;3276;48.490;9.222;2023-08-21T03:29:27;20.30;68.60
6486;DHT22;3276;48.490;9.222;2023-08-21T03:31:53;20.40;68.50
6486;DHT22;3276;48.490;9.222;2023-08-21T03:34:20;20.40;68.40
6486;DHT22;3276;48.490;9.222;2023-08-21T03:36:47;20.30;68.10
6486;DHT22;3276;48.490;9.222;2023-08-21T03:39:13;20.40;68.00
6486;DHT22;3276;48.490;9.222;2023-08-21T03:41:38;20.30;68.30
6486;DHT22;3276;48.490;9.222;2023-08-21T03:44:04;20.40;67.60
6486;DHT22;3276;48.490;9.222;2023-08-21T03:46:30;20.40;67.40
6486;DHT22;3276;48.490;9.222;2023-08-21T03:48:55;20.30;67.60
6486;DHT22;3276;48.490;9.222;2023-08-21T03:51:21;20.40;67.40
6486;DHT22;3276;48.490;9.222;2023-08-21T03:53:46;20.30;67.10
6486;DHT22;3276;48.490;9.222;2023-08-21T03:56:12;20.30;67.90
6486;DHT22;3276;48.490;9.222;2023-08-21T03:58:37;20.20;68.00
6486;DHT22;3276;48.490;9.222;2023-08-21T04:01:03;20.20;68.20
6486;DHT22;3276;48.490;9.222;2023-08-21T04:03:28;20.20;68.60
6486;DHT22;3276;48.490;9.222;2023-08-21T04:05:54;20.20;68.40
6486;DHT22;3276;48.490;9.222;2023-08-21T04:08:22;20.20;68.10
6486;DHT22;3276;48.490;9.222;2023-08-21T04:10:47;20.20;68.00
6486;DHT22;3276;48.490;9.222;2023-08-21T04:13:13;20.20;67.80
6486;DHT22;3276;48.490;9.222;2023-08-21T04:15:39;20.20;68.60
6486;DHT22;3276;48.490;9.222;2023-08-21T04:18:05;20.20;67.60
6486;DHT22;3276;48.490;9.222;2023-08-21T04:20:31;20.30;67.60
6486;DHT22;3276;48.490;9.222;2023-08-21T04:22:56;20.30;67.50
6486;DHT22;3276;48.490;9.222;2023-08-21T04:25:22;20.30;67.40
6486;DHT22;3276;48.490;9.222;2023-08-21T04:27:48;20.30;67.70
6486;DHT22;3276;48.490;9.222;2023-08-21T04:30:13;20.30;67.20
6486;DHT22;3276;48.490;9.222;2023-08-21T04:32:39;20.20;66.90
6486;DHT22;3276;48.490;9.222;2023-08-21T04:35:05;20.20;67.50
6486;DHT22;3276;48.490;9.222;2023-08-21T04:37:31;20.20;68.00
6486;DHT22;3276;48.490;9.222;2023-08-21T04:39:56;20.20;68.30
6486;DHT22;3276;48.490;9.222;2023-08-21T04:42:22;20.30;68.90
6486;DHT22;3276;48.490;9.222;2023-08-21T04:44:48;20.30;68.40
6486;DHT22;3276;48.490;9.222;2023-08-21T04:47:24;20.30;68.60
6486;DHT22;3276;48.490;9.222;2023-08-21T04:49:52;20.40;67.40
6486;DHT22;3276;48.490;9.222;2023-08-21T04:52:18;20.40;67.50
6486;DHT22;3276;48.490;9.222;2023-08-21T04:54:43;20.40;66.50
6486;DHT22;3276;48.490;9.222;2023-08-21T04:57:09;20.50;66.80
6486;DHT22;3276;48.490;9.222;2023-08-21T04:59:35;20.50;66.00
6486;DHT22;3276;48.490;9.222;2023-08-21T05:02:01;20.60;66.00
6486;DHT22;3276;48.490;9.222;2023-08-21T05:04:27;20.60;65.90
6486;DHT22;3276;48.490;9.222;2023-08-21T05:06:53;20.60;66.00
6486;DHT22;3276;48.490;9.222;2023-08-21T05:09:18;20.60;65.30
6486;DHT22;3276;48.490;9.222;2023-08-21T05:11:44;20.70;64.90
6486;DHT22;3276;48.490;9.222;2023-08-21T05:14:09;20.70;64.50
6486;DHT22;3276;48.490;9.222;2023-08-21T05:16:35;20.80;63.10
6486;DHT22;3276;48.490;9.222;2023-08-21T05:19:00;20.80;62.30
6486;DHT22;3276;48.490;9.222;2023-08-21T05:21:26;20.90;61.70
6486;DHT22;3276;48.490;9.222;2023-08-21T05:23:52;20.90;61.10
6486;DHT22;3276;48.490;9.222;2023-08-21T05:26:19;21.00;61.20
6486;DHT22;3276;48.490;9.222;2023-08-21T05:28:45;21.10;60.60
6486;DHT22;3276;48.490;9.222;2023-08-21T05:31:10;21.20;59.70
6486;DHT22;3276;48.490;9.222;2023-08-21T05:33:36;21.40;59.50
6486;DHT22;3276;48.490;9.222;2023-08-21T05:36:01;21.60;58.50
6486;DHT22;3276;48.490;9.222;2023-08-21T05:38:27;21.90;56.30
6486;DHT22;3276;48.490;9.222;2023-08-21T05:40:53;22.20;54.00
6486;DHT22;3276;48.490;9.222;2023-08-21T05:43:18;22.80;51.10
6486;DHT22;3276;48.490;9.222;2023-08-21T05:45:44;24.20;41.60
6486;DHT22;3276;48.490;9.222;2023-08-21T05:48:09;26.00;32.00
6486;DHT22;3276;48.490;9.222;2023-08-21T05:50:36;27.60;25.70
6486;DHT22;3276;48.490;9.222;2023-08-21T05:53:03;28.90;22.80
6486;DHT22;3276;48.490;9.222;2023-08-21T05:55:29;30.10;19.30
6486;DHT22;3276;48.490;9.222;2023-08-21T05:57:55;31.60;15.20
6486;DHT22;3276;48.490;9.222;2023-08-21T06:00:20;32.60;12.70
6486;DHT22;3276;48.490;9.222;2023-08-21T06:02:46;33.60;10.90
6486;DHT22;3276;48.490;9.222;2023-08-21T06:05:11;34.60;8.80
6486;DHT22;3276;48.490;9.222;2023-08-21T06:07:37;35.20;4.50
6486;DHT22;3276;48.490;9.222;2023-08-21T06:10:03;36.00;1.00
6486;DHT22;3276;48.490;9.222;2023-08-21T06:12:30;36.30;1.00
6486;DHT22;3276;48.490;9.222;2023-08-21T06:14:55;36.60;1.00
6486;DHT22;3276;48.490;9.222;2023-08-21T06:17:22;36.60;1.00
6486;DHT22;3276;48.490;9.222;2023-08-21T06:19:47;37.30;1.00
6486;DHT22;3276;48.490;9.222;2023-08-21T06:22:13;38.00;2.50
6486;DHT22;3276;48.490;9.222;2023-08-21T06:24:38;38.50;1.30
6486;DHT22;3276;48.490;9.222;2023-08-21T06:27:04;38.80;1.10
6486;DHT22;3276;48.490;9.222;2023-08-21T06:29:30;38.80;1.00
6486;DHT22;3276;48.490;9.222;2023-08-21T06:31:55;38.90;1.00
6486;DHT22;3276;48.490;9.222;2023-08-21T06:34:21;39.00;1.00
6486;DHT22;3276;48.490;9.222;2023-08-21T06:36:47;39.10;1.00
6486;DHT22;3276;48.490;9.222;2023-08-21T06:39:12;39.70;1.00
6486;DHT22;3276;48.490;9.222;2023-08-21T06:41:38;40.00;1.00
6486;DHT22;3276;48.490;9.222;2023-08-21T06:44:03;40.00;1.00
6486;DHT22;3276;48.490;9.222;2023-08-21T06:46:29;40.20;1.00
6486;DHT22;3276;48.490;9.222;2023-08-21T06:48:55;40.30;1.00
6486;DHT22;3276;48.490;9.222;2023-08-21T06:51:20;39.70;1.00
6486;DHT22;3276;48.490;9.222;2023-08-21T06:53:46;40.00;1.00
6486;DHT22;3276;48.490;9.222;2023-08-21T06:56:12;40.10;1.00
6486;DHT22;3276;48.490;9.222;2023-08-21T06:58:37;40.20;1.00
6486;DHT22;3276;48.490;9.222;2023-08-21T07:01:03;39.70;1.00
6486;DHT22;3276;48.490;9.222;2023-08-21T07:03:28;39.70;1.00
6486;DHT22;3276;48.490;9.222;2023-08-21T07:05:58;40.60;1.00
6486;DHT22;3276;48.490;9.222;2023-08-21T07:08:25;41.00;1.00
6486;DHT22;3276;48.490;9.222;2023-08-21T07:10:51;41.30;1.00
6486;DHT22;3276;48.490;9.222;2023-08-21T07:13:17;41.00;1.00
6486;DHT22;3276;48.490;9.222;2023-08-21T07:15:42;41.20;1.00
6486;DHT22;3276;48.490;9.222;2023-08-21T07:18:08;41.80;1.00
6486;DHT22;3276;48.490;9.222;2023-08-21T07:20:34;42.40;1.00
6486;DHT22;3276;48.490;9.222;2023-08-21T07:23:00;42.60;1.00
6486;DHT22;3276;48.490;9.222;2023-08-21T07:25:25;42.60;1.00
6486;DHT22;3276;48.490;9.222;2023-08-21T07:27:52;41.60;1.00
6486;DHT22;3276;48.490;9.222;2023-08-21T07:30:21;41.20;1.00
6486;DHT22;3276;48.490;9.222;2023-08-21T07:32:48;41.90;1.00
6486;DHT22;3276;48.490;9.222;2023-08-21T07:35:14;42.20;1.00
6486;DHT22;3276;48.490;9.222;2023-08-21T07:37:43;41.90;1.00
6486;DHT22;3276;48.490;9.222;2023-08-21T07:40:08;41.40;1.00
6486;DHT22;3276;48.490;9.222;2023-08-21T07:42:34;40.60;1.00
6486;DHT22;3276;48.490;9.222;2023-08-21T07:44:59;39.70;1.00
6486;DHT22;3276;48.490;9.222;2023-08-21T07:47:27;38.60;1.00
6486;DHT22;3276;48.490;9.222;2023-08-21T07:49:52;37.50;1.00
6486;DHT22;3276;48.490;9.222;2023-08-21T07:52:18;36.90;1.00
6486;DHT22;3276;48.490;9.222;2023-08-21T07:54:44;36.10;1.50
6486;DHT22;3276;48.490;9.222;2023-08-21T07:57:09;35.90;2.50
6486;DHT22;3276;48.490;9.222;2023-08-21T07:59:38;35.40;2.30
6486;DHT22;3276;48.490;9.222;2023-08-21T08:02:04;35.60;2.40
6486;DHT22;3276;48.490;9.222;2023-08-21T08:04:30;35.40;2.40
6486;DHT22;3276;48.490;9.222;2023-08-21T08:06:55;35.80;2.50
6486;DHT22;3276;48.490;9.222;2023-08-21T08:09:21;36.10;2.10
6486;DHT22;3276;48.490;9.222;2023-08-21T08:11:50;36.70;1.60
6486;DHT22;3276;48.490;9.222;2023-08-21T08:14:15;37.90;1.00
6486;DHT22;3276;48.490;9.222;2023-08-21T08:16:41;38.90;1.00
6486;DHT22;3276;48.490;9.222;2023-08-21T08:19:07;40.40;1.00
6486;DHT22;3276;48.490;9.222;2023-08-21T08:21:33;40.90;1.00
6486;DHT22;3276;48.490;9.222;2023-08-21T08:23:59;41.10;1.00
6486;DHT22;3276;48.490;9.222;2023-08-21T08:26:24;41.80;1.00
6486;DHT22;3276;48.490;9.222;2023-08-21T08:28:50;41.80;1.00
6486;DHT22;3276;48.490;9.222;2023-08-21T08:31:19;42.10;1.00
6486;DHT22;3276;48.490;9.222;2023-08-21T08:33:45;43.20;1.00
6486;DHT22;3276;48.490;9.222;2023-08-21T08:36:11;43.50;1.00
6486;DHT22;3276;48.490;9.222;2023-08-21T08:38:36;43.40;1.00
6486;DHT22;3276;48.490;9.222;2023-08-21T08:41:12;44.30;1.00
6486;DHT22;3276;48.490;9.222;2023-08-21T08:43:40;43.60;1.00
6486;DHT22;3276;48.490;9.222;2023-08-21T08:46:07;42.60;1.00
6486;DHT22;3276;48.490;9.222;2023-08-21T08:48:37;41.90;1.00
6486;DHT22;3276;48.490;9.222;2023-08-21T08:51:03;42.50;1.00
6486;DHT22;3276;48.490;9.222;2023-08-21T08:53:31;42.60;1.00
6486;DHT22;3276;48.490;9.222;2023-08-21T08:55:58;43.30;1.00
6486;DHT22;3276;48.490;9.222;2023-08-21T08:58:23;42.30;1.00
6486;DHT22;3276;48.490;9.222;2023-08-21T09:00:49;39.70;1.00
6486;DHT22;3276;48.490;9.222;2023-08-21T09:03:15;37.30;1.00
6486;DHT22;3276;48.490;9.222;2023-08-21T09:05:41;35.50;1.00
6486;DHT22;3276;48.490;9.222;2023-08-21T09:10:32;33.40;4.70
6486;DHT22;3276;48.490;9.222;2023-08-21T09:12:58;32.70;6.10
6486;DHT22;3276;48.490;9.222;2023-08-21T09:15:29;32.40;7.10
6486;DHT22;3276;48.490;9.222;2023-08-21T09:17:55;32.10;7.80
6486;DHT22;3276;48.490;9.222;2023-08-21T09:20:21;31.80;8.50
6486;DHT22;3276;48.490;9.222;2023-08-21T09:22:53;31.40;9.70
6486;DHT22;3276;48.490;9.222;2023-08-21T09:25:20;31.40;9.70
6486;DHT22;3276;48.490;9.222;2023-08-21T09:27:46;31.50;10.20
6486;DHT22;3276;48.490;9.222;2023-08-21T09:30:16;31.20;9.60
6486;DHT22;3276;48.490;9.222;2023-08-21T09:33:02;31.20;10.00
6486;DHT22;3276;48.490;9.222;2023-08-21T09:35:32;31.30;10.30
6486;DHT22;3276;48.490;9.222;2023-08-21T09:37:59;31.30;9.70
6486;DHT22;3276;48.490;9.222;2023-08-21T09:40:24;31.20;9.70
6486;DHT22;3276;48.490;9.222;2023-08-21T09:42:54;31.10;11.30
6486;DHT22;3276;48.490;9.222;2023-08-21T09:45:24;31.00;11.60
6486;DHT22;3276;48.490;9.222;2023-08-21T09:47:51;30.80;11.60
6486;DHT22;3276;48.490;9.222;2023-08-21T09:50:18;30.90;12.30
6486;DHT22;3276;48.490;9.222;2023-08-21T09:52:45;31.00;12.40
6486;DHT22;3276;48.490;9.222;2023-08-21T09:55:13;31.10;12.10
6486;DHT22;3276;48.490;9.222;2023-08-21T09:57:39;31.10;12.30
6486;DHT22;3276;48.490;9.222;2023-08-21T10:00:07;31.20;11.40
6486;DHT22;3276;48.490;9.222;2023-08-21T10:02:49;31.20;10.30
6486;DHT22;3276;48.490;9.222;2023-08-21T10:05:18;31.20;10.50
6486;DHT22;3276;48.490;9.222;2023-08-21T10:07:47;31.30;10.30
6486;DHT22;3276;48.490;9.222;2023-08-21T10:10:13;31.40;9.70
6486;DHT22;3276;48.490;9.222;2023-08-21T10:12:39;31.30;9.70
6486;DHT22;3276;48.490;9.222;2023-08-21T10:15:07;31.40;9.70
6486;DHT22;3276;48.490;9.222;2023-08-21T10:17:35;31.50;9.80
6486;DHT22;3276;48.490;9.222;2023-08-21T10:20:05;31.50;9.80
6486;DHT22;3276;48.490;9.222;2023-08-21T10:22:45;31.40;9.70
6486;DHT22;3276;48.490;9.222;2023-08-21T10:25:19;31.50;10.00
6486;DHT22;3276;48.490;9.222;2023-08-21T10:27:55;31.50;9.80
6486;DHT22;3276;48.490;9.222;2023-08-21T10:30:23;31.60;9.80
6486;DHT22;3276;48.490;9.222;2023-08-21T10:32:51;31.60;9.90
6486;DHT22;3276;48.490;9.222;2023-08-21T10:35:21;31.80;10.50
6486;DHT22;3276;48.490;9.222;2023-08-21T10:38:06;31.80;9.50
6486;DHT22;3276;48.490;9.222;2023-08-21T10:40:33;31.90;9.90
6486;DHT22;3276;48.490;9.222;2023-08-21T10:42:59;32.00;10.00
6486;DHT22;3276;48.490;9.222;2023-08-21T10:45:25;31.90;8.60
6486;DHT22;3276;48.490;9.222;2023-08-21T10:47:50;32.00;9.00
6486;DHT22;3276;48.490;9.222;2023-08-21T10:50:16;32.00;8.80
6486;DHT22;3276;48.490;9.222;2023-08-21T10:52:43;32.00;8.40
6486;DHT22;3276;48.490;9.222;2023-08-21T10:55:13;32.10;7.90
6486;DHT22;3276;48.490;9.222;2023-08-21T10:57:39;32.20;8.20
6486;DHT22;3276;48.490;9.222;2023-08-21T11:00:13;32.30;7.90
6486;DHT22;3276;48.490;9.222;2023-08-21T11:02:41;32.30;7.80
6486;DHT22;3276;48.490;9.222;2023-08-21T11:05:08;32.40;7.60
6486;DHT22;3276;48.490;9.222;2023-08-21T11:10:06;32.70;7.10
6486;DHT22;3276;48.490;9.222;2023-08-21T11:12:32;32.60;6.70
6486;DHT22;3276;48.490;9.222;2023-08-21T11:14:58;32.60;6.00
6486;DHT22;3276;48.490;9.222;2023-08-21T11:17:23;32.60;6.70
6486;DHT22;3276;48.490;9.222;2023-08-21T11:19:49;32.50;6.70
6486;DHT22;3276;48.490;9.222;2023-08-21T11:22:15;32.50;6.70
6486;DHT22;3276;48.490;9.222;2023-08-21T11:24:43;32.60;6.30
6486;DHT22;3276;48.490;9.222;2023-08-21T11:27:10;32.70;6.10
6486;DHT22;3276;48.490;9.222;2023-08-21T11:29:40;32.70;6.10
6486;DHT22;3276;48.490;9.222;2023-08-21T11:32:13;32.80;5.80
6486;DHT22;3276;48.490;9.222;2023-08-21T11:34:41;32.80;5.80
6486;DHT22;3276;48.490;9.222;2023-08-21T11:37:07;32.80;5.80
6486;DHT22;3276;48.490;9.222;2023-08-21T11:39:43;32.70;6.00
6486;DHT22;3276;48.490;9.222;2023-08-21T11:42:10;32.70;6.30
6486;DHT22;3276;48.490;9.222;2023-08-21T11:44:45;32.60;6.30
6486;DHT22;3276;48.490;9.222;2023-08-21T11:47:11;32.70;6.40
6486;DHT22;3276;48.490;9.222;2023-08-21T11:49:41;32.80;5.80
6486;DHT22;3276;48.490;9.222;2023-08-21T11:52:08;33.00;5.90
6486;DHT22;3276;48.490;9.222;2023-08-21T11:54:35;33.10;6.20
6486;DHT22;3276;48.490;9.222;2023-08-21T11:57:06;33.20;5.00
6486;DHT22;3276;48.490;9.222;2023-08-21T11:59:32;33.00;5.20
6486;DHT22;3276;48.490;9.222;2023-08-21T12:01:57;33.00;4.90
6486;DHT22;3276;48.490;9.222;2023-08-21T12:04:24;33.10;5.50
6486;DHT22;3276;48.490;9.222;2023-08-21T12:06:50;33.20;4.80
6486;DHT22;3276;48.490;9.222;2023-08-21T12:09:15;33.30;4.70
6486;DHT22;3276;48.490;9.222;2023-08-21T12:11:41;33.40;4.50
6486;DHT22;3276;48.490;9.222;2023-08-21T12:14:07;33.50;4.00
6486;DHT22;3276;48.490;9.222;2023-08-21T12:16:32;33.60;4.00
6486;DHT22;3276;48.490;9.222;2023-08-21T12:18:58;33.70;3.80
6486;DHT22;3276;48.490;9.222;2023-08-21T12:21:25;33.50;3.90
6486;DHT22;3276;48.490;9.222;2023-08-21T12:23:50;33.50;4.10
6486;DHT22;3276;48.490;9.222;2023-08-21T12:26:16;33.60;4.10
6486;DHT22;3276;48.490;9.222;2023-08-21T12:28:47;33.70;4.00
6486;DHT22;3276;48.490;9.222;2023-08-21T12:31:12;33.60;3.40
6486;DHT22;3276;48.490;9.222;2023-08-21T12:33:38;33.60;3.60
6486;DHT22;3276;48.490;9.222;2023-08-21T12:36:04;33.60;3.80
6486;DHT22;3276;48.490;9.222;2023-08-21T12:38:29;33.80;3.80
6486;DHT22;3276;48.490;9.222;2023-08-21T12:40:55;34.00;4.50
6486;DHT22;3276;48.490;9.222;2023-08-21T12:43:21;34.00;2.80
6486;DHT22;3276;48.490;9.222;2023-08-21T12:45:47;33.90;3.50
6486;DHT22;3276;48.490;9.222;2023-08-21T12:48:12;34.00;2.70
6486;DHT22;3276;48.490;9.222;2023-08-21T12:50:41;34.00;3.00
6486;DHT22;3276;48.490;9.222;2023-08-21T12:53:06;34.00;2.50
6486;DHT22;3276;48.490;9.222;2023-08-21T12:55:32;34.10;2.80
6486;DHT22;3276;48.490;9.222;2023-08-21T12:57:58;34.20;2.90
6486;DHT22;3276;48.490;9.222;2023-08-21T13:00:25;34.30;2.70
6486;DHT22;3276;48.490;9.222;2023-08-21T13:02:51;34.30;1.80
6486;DHT22;3276;48.490;9.222;2023-08-21T13:05:16;34.50;1.90
6486;DHT22;3276;48.490;9.222;2023-08-21T13:07:42;34.70;2.00
6486;DHT22;3276;48.490;9.222;2023-08-21T13:10:08;34.50;1.90
6486;DHT22;3276;48.490;9.222;2023-08-21T13:12:34;34.20;1.70
6486;DHT22;3276;48.490;9.222;2023-08-21T13:15:00;34.00;1.60
6486;DHT22;3276;48.490;9.222;2023-08-21T13:17:25;34.00;1.60
6486;DHT22;3276;48.490;9.222;2023-08-21T13:19:51;34.10;1.70
6486;DHT22;3276;48.490;9.222;2023-08-21T13:22:17;34.40;1.40
6486;DHT22;3276;48.490;9.222;2023-08-21T13:24:43;34.60;1.00
6486;DHT22;3276;48.490;9.222;2023-08-21T13:27:08;34.60;1.00
6486;DHT22;3276;48.490;9.222;2023-08-21T13:29:34;34.70;1.20
6486;DHT22;3276;48.490;9.222;2023-08-21T13:31:59;35.00;1.00
6486;DHT22;3276;48.490;9.222;2023-08-21T13:34:25;35.10;1.00
6486;DHT22;3276;48.490;9.222;2023-08-21T13:36:50;35.00;1.00
6486;DHT22;3276;48.490;9.222;2023-08-21T13:39:16;35.00;1.00
6486;DHT22;3276;48.490;9.222;2023-08-21T13:41:42;35.10;1.50
6486;DHT22;3276;48.490;9.222;2023-08-21T13:44:07;35.30;1.00
6486;DHT22;3276;48.490;9.222;2023-08-21T13:46:34;35.30;1.00
6486;DHT22;3276;48.490;9.222;2023-08-21T13:48:59;35.30;1.00
6486;DHT22;3276;48.490;9.222;2023-08-21T13:51:26;35.40;1.00
6486;DHT22;3276;48.490;9.222;2023-08-21T13:53:52;35.40;1.00
6486;DHT22;3276;48.490;9.222;2023-08-21T13:56:17;35.20;1.00
6486;DHT22;3276;48.490;9.222;2023-08-21T13:58:43;35.10;1.00
6486;DHT22;3276;48.490;9.222;2023-08-21T14:01:08;34.90;1.00
6486;DHT22;3276;48.490;9.222;2023-08-21T14:03:34;34.90;1.00
6486;DHT22;3276;48.490;9.222;2023-08-21T14:06:00;34.90;1.00
6486;DHT22;3276;48.490;9.222;2023-08-21T14:08:25;35.00;1.00
6486;DHT22;3276;48.490;9.222;2023-08-21T14:10:51;35.20;1.00
6486;DHT22;3276;48.490;9.222;2023-08-21T14:13:16;35.30;1.00
6486;DHT22;3276;48.490;9.222;2023-08-21T14:15:42;35.10;1.00
6486;DHT22;3276;48.490;9.222;2023-08-21T14:18:08;35.10;1.00
6486;DHT22;3276;48.490;9.222;2023-08-21T14:20:33;35.10;1.00
6486;DHT22;3276;48.490;9.222;2023-08-21T14:22:59;35.10;1.00
6486;DHT22;3276;48.490;9.222;2023-08-21T14:25:24;34.90;1.00
6486;DHT22;3276;48.490;9.222;2023-08-21T14:27:50;34.90;1.00
6486;DHT22;3276;48.490;9.222;2023-08-21T14:30:16;34.70;1.00
6486;DHT22;3276;48.490;9.222;2023-08-21T14:32:42;34.70;1.00
6486;DHT22;3276;48.490;9.222;2023-08-21T14:35:08;34.90;1.00
6486;DHT22;3276;48.490;9.222;2023-08-21T14:37:35;35.10;1.00
6486;DHT22;3276;48.490;9.222;2023-08-21T14:40:00;35.20;1.00
6486;DHT22;3276;48.490;9.222;2023-08-21T14:42:26;35.30;1.00
6486;DHT22;3276;48.490;9.222;2023-08-21T14:44:52;35.20;1.00
6486;DHT22;3276;48.490;9.222;2023-08-21T14:47:17;35.10;1.00
6486;DHT22;3276;48.490;9.222;2023-08-21T14:49:43;35.00;1.00
6486;DHT22;3276;48.490;9.222;2023-08-21T14:52:08;35.00;1.00
6486;DHT22;3276;48.490;9.222;2023-08-21T14:54:34;34.80;1.00
6486;DHT22;3276;48.490;9.222;2023-08-21T14:57:03;34.80;1.00
6486;DHT22;3276;48.490;9.222;2023-08-21T14:59:28;35.00;1.00
6486;DHT22;3276;48.490;9.222;2023-08-21T15:01:54;34.90;1.00
6486;DHT22;3276;48.490;9.222;2023-08-21T15:04:20;34.90;1.00
6486;DHT22;3276;48.490;9.222;2023-08-21T15:06:46;35.10;1.00
6486;DHT22;3276;48.490;9.222;2023-08-21T15:09:11;35.00;1.00
6486;DHT22;3276;48.490;9.222;2023-08-21T15:11:38;34.90;1.00
6486;DHT22;3276;48.490;9.222;2023-08-21T15:14:08;34.80;1.00
6486;DHT22;3276;48.490;9.222;2023-08-21T15:16:34;34.80;1.00
6486;DHT22;3276;48.490;9.222;2023-08-21T15:18:59;34.80;1.00
6486;DHT22;3276;48.490;9.222;2023-08-21T15:21:25;34.80;1.00
6486;DHT22;3276;48.490;9.222;2023-08-21T15:23:51;34.70;1.00
6486;DHT22;3276;48.490;9.222;2023-08-21T15:26:17;34.70;1.00
6486;DHT22;3276;48.490;9.222;2023-08-21T15:28:42;34.70;1.00
6486;DHT22;3276;48.490;9.222;2023-08-21T15:31:08;34.50;1.00
6486;DHT22;3276;48.490;9.222;2023-08-21T15:33:34;34.40;1.00
6486;DHT22;3276;48.490;9.222;2023-08-21T15:35:59;34.20;1.00
6486;DHT22;3276;48.490;9.222;2023-08-21T15:38:25;34.10;1.00
6486;DHT22;3276;48.490;9.222;2023-08-21T15:40:50;34.00;1.00
6486;DHT22;3276;48.490;9.222;2023-08-21T15:43:16;33.90;1.00
6486;DHT22;3276;48.490;9.222;2023-08-21T15:45:42;33.90;1.00
6486;DHT22;3276;48.490;9.222;2023-08-21T15:48:07;34.00;1.00
6486;DHT22;3276;48.490;9.222;2023-08-21T15:50:33;34.10;1.00
6486;DHT22;3276;48.490;9.222;2023-08-21T15:52:58;34.00;1.00
6486;DHT22;3276;48.490;9.222;2023-08-21T15:55:24;33.90;1.00
6486;DHT22;3276;48.490;9.222;2023-08-21T15:57:50;33.80;1.00
6486;DHT22;3276;48.490;9.222;2023-08-21T16:00:16;33.70;1.00
6486;DHT22;3276;48.490;9.222;2023-08-21T16:02:42;33.70;1.00
6486;DHT22;3276;48.490;9.222;2023-08-21T16:05:08;33.60;1.10
6486;DHT22;3276;48.490;9.222;2023-08-21T16:07:34;33.40;1.00
6486;DHT22;3276;48.490;9.222;2023-08-21T16:10:00;33.30;1.20
6486;DHT22;3276;48.490;9.222;2023-08-21T16:12:25;33.30;1.20
6486;DHT22;3276;48.490;9.222;2023-08-21T16:14:51;33.10;1.50